sensor_id;sensor_type;location;lat;lon;timestamp;P1;durP1;ratioP1;P2;durP2;ratioP2
17177;SDS011;8704;52.006;4.374;2023-04-21T00:01:41;20.48;;;16.33;;
17177;SDS011;8704;52.006;4.374;2023-04-21T00:04:09;20.83;;;17.33;;
17177;SDS011;8704;52.006;4.374;2023-04-21T00:06:39;19.60;;;17.50;;
17177;SDS011;8704;52.006;4.374;2023-04-21T00:09:07;22.23;;;18.10;;
17177;SDS011;8704;52.006;4.374;2023-04-21T00:11:36;24.48;;;18.50;;
17177;SDS011;8704;52.006;4.374;2023-04-21T00:14:04;19.15;;;16.80;;
17177;SDS011;8704;52.006;4.374;2023-04-21T00:16:34;22.83;;;17.40;;
17177;SDS011;8704;52.006;4.374;2023-04-21T00:19:02;22.42;;;18.05;;
17177;SDS011;8704;52.006;4.374;2023-04-21T00:21:32;20.55;;;17.27;;
17177;SDS011;8704;52.006;4.374;2023-04-21T00:24:00;23.20;;;18.55;;
17177;SDS011;8704;52.006;4.374;2023-04-21T00:26:28;20.42;;;18.20;;
17177;SDS011;8704;52.006;4.374;2023-04-21T00:28:56;20.25;;;17.92;;
17177;SDS011;8704;52.006;4.374;2023-04-21T00:31:24;20.45;;;18.33;;
17177;SDS011;8704;52.006;4.374;2023-04-21T00:33:54;22.15;;;18.05;;
17177;SDS011;8704;52.006;4.374;2023-04-21T00:36:22;23.13;;;19.25;;
17177;SDS011;8704;52.006;4.374;2023-04-21T00:38:53;22.33;;;18.40;;
17177;SDS011;8704;52.006;4.374;2023-04-21T00:41:21;21.70;;;19.40;;
17177;SDS011;8704;52.006;4.374;2023-04-21T00:43:59;23.02;;;20.27;;
17177;SDS011;8704;52.006;4.374;2023-04-21T00:46:27;26.45;;;19.75;;
17177;SDS011;8704;52.006;4.374;2023-04-21T00:48:57;23.30;;;20.40;;
17177;SDS011;8704;52.006;4.374;2023-04-21T00:51:25;23.35;;;19.65;;
17177;SDS011;8704;52.006;4.374;2023-04-21T00:53:55;25.70;;;21.85;;
17177;SDS011;8704;52.006;4.374;2023-04-21T00:56:23;24.25;;;20.60;;
17177;SDS011;8704;52.006;4.374;2023-04-21T00:58:52;25.33;;;20.88;;
17177;SDS011;8704;52.006;4.374;2023-04-21T01:01:21;23.15;;;19.92;;
17177;SDS011;8704;52.006;4.374;2023-04-21T01:03:49;26.63;;;20.80;;
17177;SDS011;8704;52.006;4.374;2023-04-21T01:06:19;23.88;;;20.75;;
17177;SDS011;8704;52.006;4.374;2023-04-21T01:08:47;30.15;;;21.75;;
17177;SDS011;8704;52.006;4.374;2023-04-21T01:11:16;24.05;;;20.05;;
17177;SDS011;8704;52.006;4.374;2023-04-21T01:13:44;26.02;;;22.13;;
17177;SDS011;8704;52.006;4.374;2023-04-21T01:16:14;26.10;;;21.65;;
17177;SDS011;8704;52.006;4.374;2023-04-21T01:18:43;26.58;;;21.73;;
17177;SDS011;8704;52.006;4.374;2023-04-21T01:21:11;27.25;;;22.23;;
17177;SDS011;8704;52.006;4.374;2023-04-21T01:23:41;28.75;;;22.95;;
17177;SDS011;8704;52.006;4.374;2023-04-21T01:26:09;29.55;;;23.63;;
17177;SDS011;8704;52.006;4.374;2023-04-21T01:28:37;25.80;;;21.52;;
17177;SDS011;8704;52.006;4.374;2023-04-21T01:31:05;26.27;;;21.42;;
17177;SDS011;8704;52.006;4.374;2023-04-21T01:33:33;27.17;;;22.30;;
17177;SDS011;8704;52.006;4.374;2023-04-21T01:36:01;27.55;;;23.70;;
17177;SDS011;8704;52.006;4.374;2023-04-21T01:38:29;28.02;;;23.17;;
17177;SDS011;8704;52.006;4.374;2023-04-21T01:40:59;26.77;;;23.45;;
17177;SDS011;8704;52.006;4.374;2023-04-21T01:43:27;28.58;;;24.55;;
17177;SDS011;8704;52.006;4.374;2023-04-21T01:45:55;27.27;;;24.42;;
17177;SDS011;8704;52.006;4.374;2023-04-21T01:48:23;27.38;;;23.67;;
17177;SDS011;8704;52.006;4.374;2023-04-21T01:50:51;30.08;;;24.45;;
17177;SDS011;8704;52.006;4.374;2023-04-21T01:53:19;30.42;;;25.23;;
17177;SDS011;8704;52.006;4.374;2023-04-21T01:55:47;31.15;;;25.88;;
17177;SDS011;8704;52.006;4.374;2023-04-21T01:58:16;30.75;;;24.83;;
17177;SDS011;8704;52.006;4.374;2023-04-21T02:00:44;29.73;;;24.38;;
17177;SDS011;8704;52.006;4.374;2023-04-21T02:03:12;30.25;;;23.50;;
17177;SDS011;8704;52.006;4.374;2023-04-21T02:05:40;31.25;;;25.35;;
17177;SDS011;8704;52.006;4.374;2023-04-21T02:08:08;29.77;;;25.27;;
17177;SDS011;8704;52.006;4.374;2023-04-21T02:10:36;27.80;;;23.20;;
17177;SDS011;8704;52.006;4.374;2023-04-21T02:13:04;28.13;;;22.90;;
17177;SDS011;8704;52.006;4.374;2023-04-21T02:15:34;28.90;;;25.08;;
17177;SDS011;8704;52.006;4.374;2023-04-21T02:18:03;27.52;;;24.55;;
17177;SDS011;8704;52.006;4.374;2023-04-21T02:20:33;29.75;;;25.23;;
17177;SDS011;8704;52.006;4.374;2023-04-21T02:23:01;29.48;;;23.80;;
17177;SDS011;8704;52.006;4.374;2023-04-21T02:25:29;29.20;;;24.65;;
17177;SDS011;8704;52.006;4.374;2023-04-21T02:27:57;30.55;;;25.20;;
17177;SDS011;8704;52.006;4.374;2023-04-21T02:30:25;29.98;;;25.73;;
17177;SDS011;8704;52.006;4.374;2023-04-21T02:32:55;30.55;;;25.73;;
17177;SDS011;8704;52.006;4.374;2023-04-21T02:35:23;28.52;;;25.10;;
17177;SDS011;8704;52.006;4.374;2023-04-21T02:37:52;31.75;;;26.13;;
17177;SDS011;8704;52.006;4.374;2023-04-21T02:40:20;31.27;;;25.88;;
17177;SDS011;8704;52.006;4.374;2023-04-21T02:42:48;31.05;;;24.60;;
17177;SDS011;8704;52.006;4.374;2023-04-21T02:45:16;29.35;;;24.27;;
17177;SDS011;8704;52.006;4.374;2023-04-21T02:47:44;31.05;;;24.92;;
17177;SDS011;8704;52.006;4.374;2023-04-21T02:50:13;31.70;;;24.48;;
17177;SDS011;8704;52.006;4.374;2023-04-21T02:52:41;28.65;;;23.83;;
17177;SDS011;8704;52.006;4.374;2023-04-21T02:55:09;28.63;;;24.98;;
17177;SDS011;8704;52.006;4.374;2023-04-21T02:57:37;32.50;;;25.73;;
17177;SDS011;8704;52.006;4.374;2023-04-21T03:00:06;33.20;;;25.17;;
17177;SDS011;8704;52.006;4.374;2023-04-21T03:02:37;33.63;;;25.02;;
17177;SDS011;8704;52.006;4.374;2023-04-21T03:05:05;28.75;;;24.13;;
17177;SDS011;8704;52.006;4.374;2023-04-21T03:07:35;31.92;;;25.17;;
17177;SDS011;8704;52.006;4.374;2023-04-21T03:10:03;28.17;;;24.17;;
17177;SDS011;8704;52.006;4.374;2023-04-21T03:12:32;30.33;;;24.75;;
17177;SDS011;8704;52.006;4.374;2023-04-21T03:15:00;30.13;;;25.85;;
17177;SDS011;8704;52.006;4.374;2023-04-21T03:17:28;29.13;;;24.80;;
17177;SDS011;8704;52.006;4.374;2023-04-21T03:19:58;30.08;;;24.05;;
17177;SDS011;8704;52.006;4.374;2023-04-21T03:22:26;31.35;;;24.40;;
17177;SDS011;8704;52.006;4.374;2023-04-21T03:24:56;28.17;;;23.42;;
17177;SDS011;8704;52.006;4.374;2023-04-21T03:27:24;27.85;;;23.67;;
17177;SDS011;8704;52.006;4.374;2023-04-21T03:29:52;24.27;;;21.50;;
17177;SDS011;8704;52.006;4.374;2023-04-21T03:32:20;29.23;;;25.10;;
17177;SDS011;8704;52.006;4.374;2023-04-21T03:34:48;30.00;;;25.17;;
17177;SDS011;8704;52.006;4.374;2023-04-21T03:37:16;30.23;;;24.35;;
17177;SDS011;8704;52.006;4.374;2023-04-21T03:39:44;26.88;;;23.02;;
17177;SDS011;8704;52.006;4.374;2023-04-21T03:42:14;30.48;;;25.20;;
17177;SDS011;8704;52.006;4.374;2023-04-21T03:44:41;34.08;;;29.27;;
17177;SDS011;8704;52.006;4.374;2023-04-21T03:47:10;35.50;;;28.25;;
17177;SDS011;8704;52.006;4.374;2023-04-21T03:49:38;35.40;;;28.77;;
17177;SDS011;8704;52.006;4.374;2023-04-21T03:52:05;35.75;;;29.48;;
17177;SDS011;8704;52.006;4.374;2023-04-21T03:54:33;36.75;;;31.17;;
17177;SDS011;8704;52.006;4.374;2023-04-21T03:57:01;41.00;;;33.58;;
17177;SDS011;8704;52.006;4.374;2023-04-21T03:59:31;40.50;;;33.92;;
17177;SDS011;8704;52.006;4.374;2023-04-21T04:01:59;41.35;;;32.13;;
17177;SDS011;8704;52.006;4.374;2023-04-21T04:04:27;43.55;;;35.63;;
17177;SDS011;8704;52.006;4.374;2023-04-21T04:06:56;42.00;;;35.55;;
17177;SDS011;8704;52.006;4.374;2023-04-21T04:09:24;43.38;;;34.47;;
17177;SDS011;8704;52.006;4.374;2023-04-21T04:11:52;42.33;;;34.50;;
17177;SDS011;8704;52.006;4.374;2023-04-21T04:14:20;41.90;;;34.80;;
17177;SDS011;8704;52.006;4.374;2023-04-21T04:16:49;42.22;;;34.25;;
17177;SDS011;8704;52.006;4.374;2023-04-21T04:19:17;41.15;;;32.20;;
17177;SDS011;8704;52.006;4.374;2023-04-21T04:21:45;46.03;;;36.28;;
17177;SDS011;8704;52.006;4.374;2023-04-21T04:24:14;44.38;;;35.97;;
17177;SDS011;8704;52.006;4.374;2023-04-21T04:26:42;44.45;;;37.70;;
17177;SDS011;8704;52.006;4.374;2023-04-21T04:29:10;45.63;;;36.53;;
17177;SDS011;8704;52.006;4.374;2023-04-21T04:31:39;39.88;;;34.38;;
17177;SDS011;8704;52.006;4.374;2023-04-21T04:34:08;41.35;;;34.10;;
17177;SDS011;8704;52.006;4.374;2023-04-21T04:36:36;38.72;;;34.15;;
17177;SDS011;8704;52.006;4.374;2023-04-21T04:39:04;43.30;;;35.38;;
17177;SDS011;8704;52.006;4.374;2023-04-21T04:41:34;40.95;;;34.85;;
17177;SDS011;8704;52.006;4.374;2023-04-21T04:44:03;45.90;;;37.92;;
17177;SDS011;8704;52.006;4.374;2023-04-21T04:46:31;44.42;;;38.30;;
17177;SDS011;8704;52.006;4.374;2023-04-21T04:48:59;48.80;;;38.30;;
17177;SDS011;8704;52.006;4.374;2023-04-21T04:51:29;49.83;;;39.05;;
17177;SDS011;8704;52.006;4.374;2023-04-21T04:53:59;45.88;;;39.85;;
17177;SDS011;8704;52.006;4.374;2023-04-21T04:56:28;42.55;;;35.67;;
17177;SDS011;8704;52.006;4.374;2023-04-21T04:58:56;44.90;;;37.08;;
17177;SDS011;8704;52.006;4.374;2023-04-21T05:01:24;48.65;;;39.30;;
17177;SDS011;8704;52.006;4.374;2023-04-21T05:03:56;48.13;;;40.33;;
17177;SDS011;8704;52.006;4.374;2023-04-21T05:06:24;48.17;;;39.90;;
17177;SDS011;8704;52.006;4.374;2023-04-21T05:08:55;52.28;;;42.65;;
17177;SDS011;8704;52.006;4.374;2023-04-21T05:11:22;51.05;;;40.95;;
17177;SDS011;8704;52.006;4.374;2023-04-21T05:13:51;50.45;;;40.42;;
17177;SDS011;8704;52.006;4.374;2023-04-21T05:16:19;52.08;;;40.15;;
17177;SDS011;8704;52.006;4.374;2023-04-21T05:18:47;49.65;;;41.40;;
17177;SDS011;8704;52.006;4.374;2023-04-21T05:21:21;53.30;;;43.05;;
17177;SDS011;8704;52.006;4.374;2023-04-21T05:23:50;51.05;;;41.78;;
17177;SDS011;8704;52.006;4.374;2023-04-21T05:26:19;52.65;;;40.70;;
17177;SDS011;8704;52.006;4.374;2023-04-21T05:28:47;49.53;;;40.67;;
17177;SDS011;8704;52.006;4.374;2023-04-21T05:31:16;52.03;;;41.13;;
17177;SDS011;8704;52.006;4.374;2023-04-21T05:33:44;51.83;;;42.22;;
17177;SDS011;8704;52.006;4.374;2023-04-21T05:36:12;55.92;;;43.28;;
17177;SDS011;8704;52.006;4.374;2023-04-21T05:38:40;56.53;;;43.70;;
17177;SDS011;8704;52.006;4.374;2023-04-21T05:41:08;53.17;;;42.20;;
17177;SDS011;8704;52.006;4.374;2023-04-21T05:43:37;49.90;;;41.15;;
17177;SDS011;8704;52.006;4.374;2023-04-21T05:46:07;52.17;;;43.33;;
17177;SDS011;8704;52.006;4.374;2023-04-21T05:48:36;52.30;;;42.50;;
17177;SDS011;8704;52.006;4.374;2023-04-21T05:51:08;51.63;;;41.13;;
17177;SDS011;8704;52.006;4.374;2023-04-21T05:53:37;51.73;;;41.57;;
17177;SDS011;8704;52.006;4.374;2023-04-21T05:56:07;50.00;;;41.55;;
17177;SDS011;8704;52.006;4.374;2023-04-21T05:58:35;52.38;;;42.65;;
17177;SDS011;8704;52.006;4.374;2023-04-21T06:01:05;50.28;;;41.47;;
17177;SDS011;8704;52.006;4.374;2023-04-21T06:03:33;54.45;;;42.53;;
17177;SDS011;8704;52.006;4.374;2023-04-21T06:06:02;51.42;;;41.78;;
17177;SDS011;8704;52.006;4.374;2023-04-21T06:08:31;52.40;;;43.13;;
17177;SDS011;8704;52.006;4.374;2023-04-21T06:10:59;55.10;;;44.78;;
17177;SDS011;8704;52.006;4.374;2023-04-21T06:13:27;55.28;;;42.30;;
17177;SDS011;8704;52.006;4.374;2023-04-21T06:15:56;49.28;;;40.05;;
17177;SDS011;8704;52.006;4.374;2023-04-21T06:18:25;50.28;;;41.75;;
17177;SDS011;8704;52.006;4.374;2023-04-21T06:20:54;58.97;;;46.78;;
17177;SDS011;8704;52.006;4.374;2023-04-21T06:23:22;49.40;;;41.00;;
17177;SDS011;8704;52.006;4.374;2023-04-21T06:25:57;51.50;;;41.90;;
17177;SDS011;8704;52.006;4.374;2023-04-21T06:28:26;55.92;;;45.88;;
17177;SDS011;8704;52.006;4.374;2023-04-21T06:30:54;55.80;;;45.55;;
17177;SDS011;8704;52.006;4.374;2023-04-21T06:33:24;55.88;;;44.80;;
17177;SDS011;8704;52.006;4.374;2023-04-21T06:35:52;63.97;;;46.88;;
17177;SDS011;8704;52.006;4.374;2023-04-21T06:38:20;60.83;;;47.40;;
17177;SDS011;8704;52.006;4.374;2023-04-21T06:40:49;56.97;;;45.15;;
17177;SDS011;8704;52.006;4.374;2023-04-21T06:43:17;51.35;;;42.78;;
17177;SDS011;8704;52.006;4.374;2023-04-21T06:45:45;52.88;;;44.28;;
17177;SDS011;8704;52.006;4.374;2023-04-21T06:48:14;56.17;;;44.72;;
17177;SDS011;8704;52.006;4.374;2023-04-21T06:50:42;59.53;;;46.28;;
17177;SDS011;8704;52.006;4.374;2023-04-21T06:53:11;59.55;;;45.92;;
17177;SDS011;8704;52.006;4.374;2023-04-21T06:55:40;57.63;;;45.60;;
17177;SDS011;8704;52.006;4.374;2023-04-21T06:58:08;60.25;;;46.72;;
17177;SDS011;8704;52.006;4.374;2023-04-21T07:00:37;52.40;;;42.90;;
17177;SDS011;8704;52.006;4.374;2023-04-21T07:03:05;55.70;;;44.55;;
17177;SDS011;8704;52.006;4.374;2023-04-21T07:05:35;54.38;;;45.03;;
17177;SDS011;8704;52.006;4.374;2023-04-21T07:08:03;52.28;;;43.40;;
17177;SDS011;8704;52.006;4.374;2023-04-21T07:10:31;49.70;;;41.97;;
17177;SDS011;8704;52.006;4.374;2023-04-21T07:12:59;52.50;;;43.55;;
17177;SDS011;8704;52.006;4.374;2023-04-21T07:15:27;53.80;;;43.03;;
17177;SDS011;8704;52.006;4.374;2023-04-21T07:17:55;51.20;;;41.70;;
17177;SDS011;8704;52.006;4.374;2023-04-21T07:20:24;51.42;;;41.38;;
17177;SDS011;8704;52.006;4.374;2023-04-21T07:22:53;52.20;;;43.30;;
17177;SDS011;8704;52.006;4.374;2023-04-21T07:25:21;51.80;;;43.33;;
17177;SDS011;8704;52.006;4.374;2023-04-21T07:27:49;52.08;;;42.13;;
17177;SDS011;8704;52.006;4.374;2023-04-21T07:30:18;53.53;;;44.63;;
17177;SDS011;8704;52.006;4.374;2023-04-21T07:32:46;54.33;;;44.65;;
17177;SDS011;8704;52.006;4.374;2023-04-21T07:35:14;52.85;;;43.50;;
17177;SDS011;8704;52.006;4.374;2023-04-21T07:37:42;56.60;;;45.55;;
17177;SDS011;8704;52.006;4.374;2023-04-21T07:40:12;56.42;;;45.70;;
17177;SDS011;8704;52.006;4.374;2023-04-21T07:42:40;59.78;;;45.70;;
17177;SDS011;8704;52.006;4.374;2023-04-21T07:45:08;59.33;;;46.40;;
17177;SDS011;8704;52.006;4.374;2023-04-21T07:47:37;58.92;;;45.58;;
17177;SDS011;8704;52.006;4.374;2023-04-21T07:50:05;54.25;;;45.92;;
17177;SDS011;8704;52.006;4.374;2023-04-21T07:52:34;53.95;;;46.15;;
17177;SDS011;8704;52.006;4.374;2023-04-21T07:55:02;54.20;;;45.83;;
17177;SDS011;8704;52.006;4.374;2023-04-21T07:57:31;55.75;;;45.00;;
17177;SDS011;8704;52.006;4.374;2023-04-21T08:00:03;53.38;;;44.28;;
17177;SDS011;8704;52.006;4.374;2023-04-21T08:02:32;53.58;;;43.10;;
17177;SDS011;8704;52.006;4.374;2023-04-21T08:05:01;58.10;;;44.78;;
17177;SDS011;8704;52.006;4.374;2023-04-21T08:07:29;59.05;;;45.97;;
17177;SDS011;8704;52.006;4.374;2023-04-21T08:09:57;54.15;;;43.75;;
17177;SDS011;8704;52.006;4.374;2023-04-21T08:12:26;54.90;;;42.80;;
17177;SDS011;8704;52.006;4.374;2023-04-21T08:14:56;52.70;;;43.67;;
17177;SDS011;8704;52.006;4.374;2023-04-21T08:17:24;49.63;;;43.25;;
17177;SDS011;8704;52.006;4.374;2023-04-21T08:19:52;52.75;;;43.83;;
17177;SDS011;8704;52.006;4.374;2023-04-21T08:22:20;51.28;;;43.10;;
17177;SDS011;8704;52.006;4.374;2023-04-21T08:24:48;50.00;;;42.38;;
17177;SDS011;8704;52.006;4.374;2023-04-21T08:27:16;51.15;;;42.45;;
17177;SDS011;8704;52.006;4.374;2023-04-21T08:29:44;52.58;;;42.53;;
17177;SDS011;8704;52.006;4.374;2023-04-21T08:32:13;50.88;;;42.47;;
17177;SDS011;8704;52.006;4.374;2023-04-21T08:34:47;49.92;;;42.63;;
17177;SDS011;8704;52.006;4.374;2023-04-21T08:37:17;47.03;;;41.17;;
17177;SDS011;8704;52.006;4.374;2023-04-21T08:39:45;48.40;;;42.58;;
17177;SDS011;8704;52.006;4.374;2023-04-21T08:42:13;47.58;;;42.22;;
17177;SDS011;8704;52.006;4.374;2023-04-21T08:44:42;50.22;;;42.78;;
17177;SDS011;8704;52.006;4.374;2023-04-21T08:47:10;48.20;;;41.60;;
17177;SDS011;8704;52.006;4.374;2023-04-21T08:49:41;46.97;;;41.63;;
17177;SDS011;8704;52.006;4.374;2023-04-21T08:52:11;48.65;;;41.65;;
17177;SDS011;8704;52.006;4.374;2023-04-21T08:54:39;48.03;;;41.80;;
17177;SDS011;8704;52.006;4.374;2023-04-21T08:57:07;46.38;;;41.33;;
17177;SDS011;8704;52.006;4.374;2023-04-21T08:59:41;43.22;;;37.70;;
17177;SDS011;8704;52.006;4.374;2023-04-21T09:02:09;42.53;;;38.13;;
17177;SDS011;8704;52.006;4.374;2023-04-21T09:04:42;42.55;;;37.78;;
17177;SDS011;8704;52.006;4.374;2023-04-21T09:07:12;43.17;;;38.30;;
17177;SDS011;8704;52.006;4.374;2023-04-21T09:09:57;40.70;;;36.30;;
17177;SDS011;8704;52.006;4.374;2023-04-21T09:12:27;43.10;;;38.55;;
17177;SDS011;8704;52.006;4.374;2023-04-21T09:14:55;40.70;;;36.42;;
17177;SDS011;8704;52.006;4.374;2023-04-21T09:17:26;41.13;;;36.22;;
17177;SDS011;8704;52.006;4.374;2023-04-21T09:20:02;38.55;;;34.45;;
17177;SDS011;8704;52.006;4.374;2023-04-21T09:25:08;39.42;;;35.17;;
17177;SDS011;8704;52.006;4.374;2023-04-21T09:27:36;37.78;;;33.78;;
17177;SDS011;8704;52.006;4.374;2023-04-21T09:30:04;39.20;;;35.00;;
17177;SDS011;8704;52.006;4.374;2023-04-21T09:32:35;36.55;;;32.58;;
17177;SDS011;8704;52.006;4.374;2023-04-21T09:35:06;34.47;;;30.77;;
17177;SDS011;8704;52.006;4.374;2023-04-21T09:37:39;36.00;;;32.13;;
17177;SDS011;8704;52.006;4.374;2023-04-21T09:40:11;34.35;;;30.75;;
17177;SDS011;8704;52.006;4.374;2023-04-21T09:42:40;33.03;;;29.48;;
17177;SDS011;8704;52.006;4.374;2023-04-21T09:45:10;31.00;;;27.80;;
17177;SDS011;8704;52.006;4.374;2023-04-21T09:47:42;29.77;;;26.63;;
17177;SDS011;8704;52.006;4.374;2023-04-21T09:50:16;30.60;;;27.30;;
17177;SDS011;8704;52.006;4.374;2023-04-21T09:55:38;31.45;;;26.45;;
17177;SDS011;8704;52.006;4.374;2023-04-21T09:58:08;30.75;;;27.45;;
17177;SDS011;8704;52.006;4.374;2023-04-21T10:00:42;31.40;;;28.27;;
17177;SDS011;8704;52.006;4.374;2023-04-21T10:03:10;30.38;;;27.17;;
17177;SDS011;8704;52.006;4.374;2023-04-21T10:05:42;30.52;;;27.13;;
17177;SDS011;8704;52.006;4.374;2023-04-21T10:08:10;30.08;;;26.88;;
17177;SDS011;8704;52.006;4.374;2023-04-21T10:10:39;31.08;;;25.90;;
17177;SDS011;8704;52.006;4.374;2023-04-21T10:13:11;30.15;;;26.88;;
17177;SDS011;8704;52.006;4.374;2023-04-21T10:15:41;28.75;;;25.73;;
17177;SDS011;8704;52.006;4.374;2023-04-21T10:18:10;29.77;;;25.95;;
17177;SDS011;8704;52.006;4.374;2023-04-21T10:20:53;29.58;;;26.45;;
17177;SDS011;8704;52.006;4.374;2023-04-21T10:23:25;28.10;;;25.05;;
17177;SDS011;8704;52.006;4.374;2023-04-21T10:26:01;26.90;;;24.10;;
17177;SDS011;8704;52.006;4.374;2023-04-21T10:28:44;25.77;;;23.08;;
17177;SDS011;8704;52.006;4.374;2023-04-21T10:31:24;25.05;;;22.35;;
17177;SDS011;8704;52.006;4.374;2023-04-21T10:34:12;25.95;;;22.83;;
17177;SDS011;8704;52.006;4.374;2023-04-21T10:36:51;25.80;;;22.83;;
17177;SDS011;8704;52.006;4.374;2023-04-21T10:39:44;24.17;;;21.65;;
17177;SDS011;8704;52.006;4.374;2023-04-21T10:42:18;25.17;;;22.48;;
17177;SDS011;8704;52.006;4.374;2023-04-21T10:47:39;23.58;;;20.50;;
17177;SDS011;8704;52.006;4.374;2023-04-21T10:50:13;22.77;;;20.35;;
17177;SDS011;8704;52.006;4.374;2023-04-21T10:52:44;23.40;;;20.90;;
17177;SDS011;8704;52.006;4.374;2023-04-21T10:55:17;23.70;;;21.10;;
17177;SDS011;8704;52.006;4.374;2023-04-21T10:57:47;20.38;;;17.75;;
17177;SDS011;8704;52.006;4.374;2023-04-21T11:00:16;19.38;;;17.27;;
17177;SDS011;8704;52.006;4.374;2023-04-21T11:02:56;20.63;;;18.52;;
17177;SDS011;8704;52.006;4.374;2023-04-21T11:05:26;18.67;;;16.70;;
17177;SDS011;8704;52.006;4.374;2023-04-21T11:08:04;18.95;;;16.95;;
17177;SDS011;8704;52.006;4.374;2023-04-21T11:10:45;20.17;;;17.48;;
17177;SDS011;8704;52.006;4.374;2023-04-21T11:13:19;16.98;;;15.18;;
17177;SDS011;8704;52.006;4.374;2023-04-21T11:16:04;16.83;;;15.13;;
17177;SDS011;8704;52.006;4.374;2023-04-21T11:18:37;18.27;;;16.40;;
17177;SDS011;8704;52.006;4.374;2023-04-21T11:21:07;17.63;;;15.27;;
17177;SDS011;8704;52.006;4.374;2023-04-21T11:23:41;17.77;;;15.88;;
17177;SDS011;8704;52.006;4.374;2023-04-21T11:26:14;18.90;;;17.00;;
17177;SDS011;8704;52.006;4.374;2023-04-21T11:28:42;18.67;;;16.60;;
17177;SDS011;8704;52.006;4.374;2023-04-21T11:31:15;17.25;;;15.43;;
17177;SDS011;8704;52.006;4.374;2023-04-21T11:33:43;17.13;;;15.32;;
17177;SDS011;8704;52.006;4.374;2023-04-21T11:36:11;18.67;;;16.77;;
17177;SDS011;8704;52.006;4.374;2023-04-21T11:38:40;17.92;;;16.08;;
17177;SDS011;8704;52.006;4.374;2023-04-21T11:41:08;17.48;;;15.75;;
17177;SDS011;8704;52.006;4.374;2023-04-21T11:43:37;16.98;;;15.27;;
17177;SDS011;8704;52.006;4.374;2023-04-21T11:46:18;17.60;;;15.60;;
17177;SDS011;8704;52.006;4.374;2023-04-21T11:48:59;17.73;;;15.93;;
17177;SDS011;8704;52.006;4.374;2023-04-21T11:51:33;17.70;;;15.90;;
17177;SDS011;8704;52.006;4.374;2023-04-21T11:56:36;18.17;;;16.33;;
17177;SDS011;8704;52.006;4.374;2023-04-21T11:59:06;17.98;;;16.10;;
17177;SDS011;8704;52.006;4.374;2023-04-21T12:01:34;18.80;;;16.85;;
17177;SDS011;8704;52.006;4.374;2023-04-21T12:04:12;18.60;;;16.80;;
17177;SDS011;8704;52.006;4.374;2023-04-21T12:06:41;19.35;;;17.27;;
17177;SDS011;8704;52.006;4.374;2023-04-21T12:09:16;20.65;;;18.55;;
17177;SDS011;8704;52.006;4.374;2023-04-21T12:11:46;19.55;;;17.48;;
17177;SDS011;8704;52.006;4.374;2023-04-21T12:14:17;20.45;;;18.35;;
17177;SDS011;8704;52.006;4.374;2023-04-21T12:16:47;19.27;;;17.10;;
17177;SDS011;8704;52.006;4.374;2023-04-21T12:19:20;18.67;;;16.77;;
17177;SDS011;8704;52.006;4.374;2023-04-21T12:21:53;17.40;;;15.60;;
17177;SDS011;8704;52.006;4.374;2023-04-21T12:24:23;19.45;;;17.50;;
17177;SDS011;8704;52.006;4.374;2023-04-21T12:26:51;19.80;;;17.75;;
17177;SDS011;8704;52.006;4.374;2023-04-21T12:29:20;19.35;;;17.27;;
17177;SDS011;8704;52.006;4.374;2023-04-21T12:31:48;19.60;;;17.52;;
17177;SDS011;8704;52.006;4.374;2023-04-21T12:34:16;20.25;;;18.23;;
17177;SDS011;8704;52.006;4.374;2023-04-21T12:36:44;19.80;;;17.38;;
17177;SDS011;8704;52.006;4.374;2023-04-21T12:39:12;20.52;;;16.67;;
17177;SDS011;8704;52.006;4.374;2023-04-21T12:41:43;20.88;;;18.30;;
17177;SDS011;8704;52.006;4.374;2023-04-21T12:44:12;18.10;;;16.23;;
17177;SDS011;8704;52.006;4.374;2023-04-21T12:46:40;18.80;;;17.00;;
17177;SDS011;8704;52.006;4.374;2023-04-21T12:49:08;17.67;;;15.77;;
17177;SDS011;8704;52.006;4.374;2023-04-21T12:51:36;19.00;;;17.10;;
17177;SDS011;8704;52.006;4.374;2023-04-21T12:54:04;17.02;;;15.32;;
17177;SDS011;8704;52.006;4.374;2023-04-21T12:56:32;15.55;;;13.95;;
17177;SDS011;8704;52.006;4.374;2023-04-21T12:59:02;15.95;;;14.35;;
17177;SDS011;8704;52.006;4.374;2023-04-21T13:01:30;16.13;;;14.55;;
17177;SDS011;8704;52.006;4.374;2023-04-21T13:03:59;15.85;;;14.25;;
17177;SDS011;8704;52.006;4.374;2023-04-21T13:06:27;16.52;;;14.82;;
17177;SDS011;8704;52.006;4.374;2023-04-21T13:08:56;14.90;;;13.40;;
17177;SDS011;8704;52.006;4.374;2023-04-21T13:11:24;15.07;;;13.45;;
17177;SDS011;8704;52.006;4.374;2023-04-21T13:13:52;15.25;;;13.65;;
17177;SDS011;8704;52.006;4.374;2023-04-21T13:16:21;15.40;;;13.90;;
17177;SDS011;8704;52.006;4.374;2023-04-21T13:18:51;14.18;;;12.68;;
17177;SDS011;8704;52.006;4.374;2023-04-21T13:21:19;13.85;;;11.85;;
17177;SDS011;8704;52.006;4.374;2023-04-21T13:23:47;14.38;;;12.88;;
17177;SDS011;8704;52.006;4.374;2023-04-21T13:26:16;13.93;;;12.48;;
17177;SDS011;8704;52.006;4.374;2023-04-21T13:28:44;14.07;;;12.57;;
17177;SDS011;8704;52.006;4.374;2023-04-21T13:31:12;13.13;;;11.82;;
17177;SDS011;8704;52.006;4.374;2023-04-21T13:33:42;14.02;;;12.20;;
17177;SDS011;8704;52.006;4.374;2023-04-21T13:36:10;13.32;;;12.02;;
17177;SDS011;8704;52.006;4.374;2023-04-21T13:38:38;12.48;;;11.07;;
17177;SDS011;8704;52.006;4.374;2023-04-21T13:41:06;13.02;;;11.07;;
17177;SDS011;8704;52.006;4.374;2023-04-21T13:43:35;13.38;;;11.70;;
17177;SDS011;8704;52.006;4.374;2023-04-21T13:46:03;13.93;;;12.18;;
17177;SDS011;8704;52.006;4.374;2023-04-21T13:48:31;13.13;;;11.80;;
17177;SDS011;8704;52.006;4.374;2023-04-21T13:51:01;13.27;;;11.88;;
17177;SDS011;8704;52.006;4.374;2023-04-21T13:53:29;14.93;;;13.32;;
17177;SDS011;8704;52.006;4.374;2023-04-21T13:55:57;14.52;;;13.02;;
17177;SDS011;8704;52.006;4.374;2023-04-21T13:58:25;15.07;;;12.98;;
17177;SDS011;8704;52.006;4.374;2023-04-21T14:00:55;14.43;;;12.88;;
17177;SDS011;8704;52.006;4.374;2023-04-21T14:03:23;14.20;;;12.73;;
17177;SDS011;8704;52.006;4.374;2023-04-21T14:05:52;14.77;;;13.27;;
17177;SDS011;8704;52.006;4.374;2023-04-21T14:08:21;14.50;;;13.10;;
17177;SDS011;8704;52.006;4.374;2023-04-21T14:10:49;14.57;;;13.13;;
17177;SDS011;8704;52.006;4.374;2023-04-21T14:13:17;15.75;;;14.07;;
17177;SDS011;8704;52.006;4.374;2023-04-21T14:16:01;14.85;;;13.35;;
17177;SDS011;8704;52.006;4.374;2023-04-21T14:18:29;15.75;;;14.15;;
17177;SDS011;8704;52.006;4.374;2023-04-21T14:20:57;16.70;;;14.27;;
17177;SDS011;8704;52.006;4.374;2023-04-21T14:23:26;15.27;;;13.70;;
17177;SDS011;8704;52.006;4.374;2023-04-21T14:25:54;14.80;;;13.35;;
17177;SDS011;8704;52.006;4.374;2023-04-21T14:28:22;16.73;;;15.10;;
17177;SDS011;8704;52.006;4.374;2023-04-21T14:30:50;15.63;;;14.05;;
17177;SDS011;8704;52.006;4.374;2023-04-21T14:33:18;16.02;;;14.32;;
17177;SDS011;8704;52.006;4.374;2023-04-21T14:35:46;16.33;;;14.63;;
17177;SDS011;8704;52.006;4.374;2023-04-21T14:38:14;16.90;;;15.10;;
17177;SDS011;8704;52.006;4.374;2023-04-21T14:40:44;16.52;;;14.80;;
17177;SDS011;8704;52.006;4.374;2023-04-21T14:43:12;15.95;;;14.35;;
17177;SDS011;8704;52.006;4.374;2023-04-21T14:45:40;15.90;;;14.30;;
17177;SDS011;8704;52.006;4.374;2023-04-21T14:48:08;16.17;;;14.55;;
17177;SDS011;8704;52.006;4.374;2023-04-21T14:50:39;16.00;;;14.40;;
17177;SDS011;8704;52.006;4.374;2023-04-21T14:53:07;16.90;;;15.02;;
17177;SDS011;8704;52.006;4.374;2023-04-21T14:55:36;16.73;;;15.13;;
17177;SDS011;8704;52.006;4.374;2023-04-21T14:58:05;15.82;;;14.15;;